sensor_id;sensor_type;location;lat;lon;timestamp;P1;durP1;ratioP1;P2;durP2;ratioP2
44664;SDS011;30382;48.802;9.388;2022-08-23T00:00:39;4.80;;;3.97;;
44664;SDS011;30382;48.802;9.388;2022-08-23T00:03:23;4.40;;;3.93;;
44664;SDS011;30382;48.802;9.388;2022-08-23T00:06:08;4.10;;;3.80;;
44664;SDS011;30382;48.802;9.388;2022-08-23T00:08:53;4.37;;;3.37;;
44664;SDS011;30382;48.802;9.388;2022-08-23T00:11:39;4.53;;;3.57;;
44664;SDS011;30382;48.802;9.388;2022-08-23T00:14:28;3.87;;;3.47;;
44664;SDS011;30382;48.802;9.388;2022-08-23T00:17:13;5.57;;;3.30;;
44664;SDS011;30382;48.802;9.388;2022-08-23T00:19:58;3.53;;;3.07;;
44664;SDS011;30382;48.802;9.388;2022-08-23T00:22:42;4.70;;;3.50;;
44664;SDS011;30382;48.802;9.388;2022-08-23T00:25:27;3.93;;;3.63;;
44664;SDS011;30382;48.802;9.388;2022-08-23T00:28:11;3.93;;;3.53;;
44664;SDS011;30382;48.802;9.388;2022-08-23T00:30:56;3.90;;;3.50;;
44664;SDS011;30382;48.802;9.388;2022-08-23T00:33:40;3.30;;;3.10;;
44664;SDS011;30382;48.802;9.388;2022-08-23T00:36:25;4.03;;;3.57;;
44664;SDS011;30382;48.802;9.388;2022-08-23T00:39:09;5.50;;;3.47;;
44664;SDS011;30382;48.802;9.388;2022-08-23T00:42:05;3.77;;;3.40;;
44664;SDS011;30382;48.802;9.388;2022-08-23T00:45:14;3.50;;;3.20;;
44664;SDS011;30382;48.802;9.388;2022-08-23T00:48:18;5.43;;;3.50;;
44664;SDS011;30382;48.802;9.388;2022-08-23T00:51:13;4.33;;;3.50;;
44664;SDS011;30382;48.802;9.388;2022-08-23T00:53:59;3.47;;;3.00;;
44664;SDS011;30382;48.802;9.388;2022-08-23T00:56:46;4.10;;;3.70;;
44664;SDS011;30382;48.802;9.388;2022-08-23T00:59:32;3.50;;;3.20;;
44664;SDS011;30382;48.802;9.388;2022-08-23T01:02:16;3.10;;;2.90;;
44664;SDS011;30382;48.802;9.388;2022-08-23T01:05:01;3.60;;;3.40;;
44664;SDS011;30382;48.802;9.388;2022-08-23T01:07:53;3.10;;;2.90;;
44664;SDS011;30382;48.802;9.388;2022-08-23T01:10:40;3.27;;;2.97;;
44664;SDS011;30382;48.802;9.388;2022-08-23T01:13:28;3.40;;;3.10;;
44664;SDS011;30382;48.802;9.388;2022-08-23T01:16:18;3.70;;;3.40;;
44664;SDS011;30382;48.802;9.388;2022-08-23T01:19:07;3.60;;;3.30;;
44664;SDS011;30382;48.802;9.388;2022-08-23T01:21:58;3.67;;;3.40;;
44664;SDS011;30382;48.802;9.388;2022-08-23T01:24:44;3.10;;;2.80;;
44664;SDS011;30382;48.802;9.388;2022-08-23T01:27:29;4.20;;;3.30;;
44664;SDS011;30382;48.802;9.388;2022-08-23T01:30:16;5.53;;;3.20;;
44664;SDS011;30382;48.802;9.388;2022-08-23T01:33:02;4.90;;;3.13;;
44664;SDS011;30382;48.802;9.388;2022-08-23T01:35:48;5.13;;;3.57;;
44664;SDS011;30382;48.802;9.388;2022-08-23T01:38:34;4.20;;;3.80;;
44664;SDS011;30382;48.802;9.388;2022-08-23T01:41:18;3.50;;;3.20;;
44664;SDS011;30382;48.802;9.388;2022-08-23T01:44:04;2.97;;;2.77;;
44664;SDS011;30382;48.802;9.388;2022-08-23T01:46:49;3.30;;;2.90;;
44664;SDS011;30382;48.802;9.388;2022-08-23T01:49:33;3.40;;;3.10;;
44664;SDS011;30382;48.802;9.388;2022-08-23T01:52:18;4.10;;;3.20;;
44664;SDS011;30382;48.802;9.388;2022-08-23T01:55:03;3.73;;;3.30;;
44664;SDS011;30382;48.802;9.388;2022-08-23T01:57:49;3.77;;;3.47;;
44664;SDS011;30382;48.802;9.388;2022-08-23T02:00:37;3.57;;;3.27;;
44664;SDS011;30382;48.802;9.388;2022-08-23T02:03:23;3.07;;;2.83;;
44664;SDS011;30382;48.802;9.388;2022-08-23T02:06:07;3.03;;;2.83;;
44664;SDS011;30382;48.802;9.388;2022-08-23T02:08:52;5.60;;;3.10;;
44664;SDS011;30382;48.802;9.388;2022-08-23T02:11:46;3.70;;;3.47;;
44664;SDS011;30382;48.802;9.388;2022-08-23T02:14:32;2.80;;;2.60;;
44664;SDS011;30382;48.802;9.388;2022-08-23T02:17:18;3.77;;;3.13;;
44664;SDS011;30382;48.802;9.388;2022-08-23T02:20:02;4.13;;;3.30;;
44664;SDS011;30382;48.802;9.388;2022-08-23T02:22:48;3.43;;;3.23;;
44664;SDS011;30382;48.802;9.388;2022-08-23T02:25:33;3.83;;;3.57;;
44664;SDS011;30382;48.802;9.388;2022-08-23T02:28:17;4.30;;;3.90;;
44664;SDS011;30382;48.802;9.388;2022-08-23T02:31:02;3.67;;;3.37;;
44664;SDS011;30382;48.802;9.388;2022-08-23T02:33:47;3.53;;;3.23;;
44664;SDS011;30382;48.802;9.388;2022-08-23T02:36:33;4.30;;;4.00;;
44664;SDS011;30382;48.802;9.388;2022-08-23T02:39:18;5.53;;;3.33;;
44664;SDS011;30382;48.802;9.388;2022-08-23T02:42:02;4.13;;;3.73;;
44664;SDS011;30382;48.802;9.388;2022-08-23T02:44:50;3.60;;;3.40;;
44664;SDS011;30382;48.802;9.388;2022-08-23T02:47:35;4.63;;;3.60;;
44664;SDS011;30382;48.802;9.388;2022-08-23T02:50:30;4.17;;;3.77;;
44664;SDS011;30382;48.802;9.388;2022-08-23T02:53:15;4.60;;;3.80;;
44664;SDS011;30382;48.802;9.388;2022-08-23T02:56:00;3.83;;;3.53;;
44664;SDS011;30382;48.802;9.388;2022-08-23T02:58:45;4.40;;;3.53;;
44664;SDS011;30382;48.802;9.388;2022-08-23T03:01:35;3.83;;;3.50;;
44664;SDS011;30382;48.802;9.388;2022-08-23T03:04:32;4.17;;;3.77;;
44664;SDS011;30382;48.802;9.388;2022-08-23T03:07:16;3.73;;;3.53;;
44664;SDS011;30382;48.802;9.388;2022-08-23T03:10:02;3.97;;;3.67;;
44664;SDS011;30382;48.802;9.388;2022-08-23T03:12:50;4.00;;;3.70;;
44664;SDS011;30382;48.802;9.388;2022-08-23T03:15:34;5.17;;;4.10;;
44664;SDS011;30382;48.802;9.388;2022-08-23T03:18:18;5.00;;;4.13;;
44664;SDS011;30382;48.802;9.388;2022-08-23T03:21:03;4.47;;;3.40;;
44664;SDS011;30382;48.802;9.388;2022-08-23T03:23:48;4.00;;;3.70;;
44664;SDS011;30382;48.802;9.388;2022-08-23T03:26:33;4.30;;;3.33;;
44664;SDS011;30382;48.802;9.388;2022-08-23T03:29:17;4.13;;;3.83;;
44664;SDS011;30382;48.802;9.388;2022-08-23T03:32:18;6.20;;;3.80;;
44664;SDS011;30382;48.802;9.388;2022-08-23T03:35:03;4.27;;;3.97;;
44664;SDS011;30382;48.802;9.388;2022-08-23T03:37:48;3.90;;;3.50;;
44664;SDS011;30382;48.802;9.388;2022-08-23T03:40:32;4.30;;;4.00;;
44664;SDS011;30382;48.802;9.388;2022-08-23T03:43:18;4.50;;;4.13;;
44664;SDS011;30382;48.802;9.388;2022-08-23T03:46:03;5.43;;;4.63;;
44664;SDS011;30382;48.802;9.388;2022-08-23T03:48:52;4.37;;;3.97;;
44664;SDS011;30382;48.802;9.388;2022-08-23T03:51:37;4.10;;;3.80;;
44664;SDS011;30382;48.802;9.388;2022-08-23T03:54:21;5.27;;;3.87;;
44664;SDS011;30382;48.802;9.388;2022-08-23T03:57:08;5.00;;;3.97;;
44664;SDS011;30382;48.802;9.388;2022-08-23T03:59:53;4.03;;;3.70;;
44664;SDS011;30382;48.802;9.388;2022-08-23T04:02:37;4.10;;;3.80;;
44664;SDS011;30382;48.802;9.388;2022-08-23T04:05:22;4.00;;;3.60;;
44664;SDS011;30382;48.802;9.388;2022-08-23T04:08:35;3.67;;;3.37;;
44664;SDS011;30382;48.802;9.388;2022-08-23T04:11:22;6.97;;;3.87;;
44664;SDS011;30382;48.802;9.388;2022-08-23T04:14:15;4.23;;;3.70;;
44664;SDS011;30382;48.802;9.388;2022-08-23T04:16:59;4.70;;;3.30;;
44664;SDS011;30382;48.802;9.388;2022-08-23T04:19:44;3.47;;;3.27;;
44664;SDS011;30382;48.802;9.388;2022-08-23T04:22:28;4.37;;;3.83;;
44664;SDS011;30382;48.802;9.388;2022-08-23T04:25:12;5.50;;;4.00;;
44664;SDS011;30382;48.802;9.388;2022-08-23T04:27:57;7.17;;;4.00;;
44664;SDS011;30382;48.802;9.388;2022-08-23T04:30:41;3.80;;;3.47;;
44664;SDS011;30382;48.802;9.388;2022-08-23T04:33:27;3.93;;;3.73;;
44664;SDS011;30382;48.802;9.388;2022-08-23T04:36:13;3.87;;;3.40;;
44664;SDS011;30382;48.802;9.388;2022-08-23T04:38:58;4.57;;;4.03;;
44664;SDS011;30382;48.802;9.388;2022-08-23T04:41:42;4.10;;;3.80;;
44664;SDS011;30382;48.802;9.388;2022-08-23T04:44:45;6.20;;;3.83;;
44664;SDS011;30382;48.802;9.388;2022-08-23T04:47:30;6.40;;;3.80;;
44664;SDS011;30382;48.802;9.388;2022-08-23T04:50:18;3.93;;;3.63;;
44664;SDS011;30382;48.802;9.388;2022-08-23T04:53:25;5.03;;;4.10;;
44664;SDS011;30382;48.802;9.388;2022-08-23T04:56:21;4.57;;;4.10;;
44664;SDS011;30382;48.802;9.388;2022-08-23T04:59:07;4.80;;;4.30;;
44664;SDS011;30382;48.802;9.388;2022-08-23T05:01:51;6.10;;;4.30;;
44664;SDS011;30382;48.802;9.388;2022-08-23T05:04:36;4.30;;;3.67;;
44664;SDS011;30382;48.802;9.388;2022-08-23T05:07:20;4.80;;;4.40;;
44664;SDS011;30382;48.802;9.388;2022-08-23T05:10:05;4.87;;;4.40;;
44664;SDS011;30382;48.802;9.388;2022-08-23T05:12:50;4.23;;;3.87;;
44664;SDS011;30382;48.802;9.388;2022-08-23T05:15:37;4.60;;;3.70;;
44664;SDS011;30382;48.802;9.388;2022-08-23T05:18:23;4.80;;;4.10;;
44664;SDS011;30382;48.802;9.388;2022-08-23T05:21:07;4.70;;;4.30;;
44664;SDS011;30382;48.802;9.388;2022-08-23T05:23:56;3.90;;;3.60;;
44664;SDS011;30382;48.802;9.388;2022-08-23T05:26:43;4.87;;;4.57;;
44664;SDS011;30382;48.802;9.388;2022-08-23T05:29:27;4.77;;;4.47;;
44664;SDS011;30382;48.802;9.388;2022-08-23T05:32:12;4.30;;;3.90;;
44664;SDS011;30382;48.802;9.388;2022-08-23T05:34:56;3.83;;;3.53;;
44664;SDS011;30382;48.802;9.388;2022-08-23T05:37:40;5.77;;;4.37;;
44664;SDS011;30382;48.802;9.388;2022-08-23T05:40:26;4.00;;;3.70;;
44664;SDS011;30382;48.802;9.388;2022-08-23T05:43:21;3.87;;;3.57;;
44664;SDS011;30382;48.802;9.388;2022-08-23T05:46:07;4.80;;;4.50;;
44664;SDS011;30382;48.802;9.388;2022-08-23T05:48:56;4.37;;;3.97;;
44664;SDS011;30382;48.802;9.388;2022-08-23T05:51:41;4.17;;;3.83;;
44664;SDS011;30382;48.802;9.388;2022-08-23T05:54:26;4.67;;;4.27;;
44664;SDS011;30382;48.802;9.388;2022-08-23T05:57:45;4.37;;;4.07;;
44664;SDS011;30382;48.802;9.388;2022-08-23T06:00:30;8.00;;;5.30;;
44664;SDS011;30382;48.802;9.388;2022-08-23T06:03:18;21.27;;;15.10;;
44664;SDS011;30382;48.802;9.388;2022-08-23T06:06:04;9.37;;;8.37;;
44664;SDS011;30382;48.802;9.388;2022-08-23T06:08:49;4.37;;;4.07;;
44664;SDS011;30382;48.802;9.388;2022-08-23T06:11:34;6.00;;;5.50;;
44664;SDS011;30382;48.802;9.388;2022-08-23T06:14:19;5.97;;;4.37;;
44664;SDS011;30382;48.802;9.388;2022-08-23T06:17:04;4.43;;;4.13;;
44664;SDS011;30382;48.802;9.388;2022-08-23T06:19:49;4.50;;;4.07;;
44664;SDS011;30382;48.802;9.388;2022-08-23T06:22:55;3.70;;;3.40;;
44664;SDS011;30382;48.802;9.388;2022-08-23T06:25:40;5.60;;;4.27;;
44664;SDS011;30382;48.802;9.388;2022-08-23T06:28:34;3.27;;;3.07;;
44664;SDS011;30382;48.802;9.388;2022-08-23T06:31:19;3.50;;;3.20;;
44664;SDS011;30382;48.802;9.388;2022-08-23T06:34:28;3.30;;;3.00;;
44664;SDS011;30382;48.802;9.388;2022-08-23T06:37:25;3.27;;;2.93;;
44664;SDS011;30382;48.802;9.388;2022-08-23T06:43:36;3.43;;;3.07;;
44664;SDS011;30382;48.802;9.388;2022-08-23T06:46:40;3.23;;;3.03;;
44664;SDS011;30382;48.802;9.388;2022-08-23T06:49:25;5.03;;;3.47;;
44664;SDS011;30382;48.802;9.388;2022-08-23T06:52:11;3.50;;;3.20;;
44664;SDS011;30382;48.802;9.388;2022-08-23T06:55:14;3.87;;;3.57;;
44664;SDS011;30382;48.802;9.388;2022-08-23T06:58:17;3.60;;;3.30;;
44664;SDS011;30382;48.802;9.388;2022-08-23T07:01:29;3.30;;;3.00;;
44664;SDS011;30382;48.802;9.388;2022-08-23T07:04:24;4.33;;;3.20;;
44664;SDS011;30382;48.802;9.388;2022-08-23T07:07:28;3.80;;;3.30;;
44664;SDS011;30382;48.802;9.388;2022-08-23T07:10:12;2.80;;;2.60;;
44664;SDS011;30382;48.802;9.388;2022-08-23T07:12:56;4.10;;;3.10;;
44664;SDS011;30382;48.802;9.388;2022-08-23T07:15:40;2.90;;;2.70;;
44664;SDS011;30382;48.802;9.388;2022-08-23T07:18:26;3.90;;;3.50;;
44664;SDS011;30382;48.802;9.388;2022-08-23T07:21:11;3.83;;;3.43;;
44664;SDS011;30382;48.802;9.388;2022-08-23T07:23:56;3.10;;;2.90;;
44664;SDS011;30382;48.802;9.388;2022-08-23T07:26:41;4.00;;;3.43;;
44664;SDS011;30382;48.802;9.388;2022-08-23T07:29:27;2.40;;;2.30;;
44664;SDS011;30382;48.802;9.388;2022-08-23T07:32:13;2.50;;;2.30;;
44664;SDS011;30382;48.802;9.388;2022-08-23T07:34:58;4.50;;;2.90;;
44664;SDS011;30382;48.802;9.388;2022-08-23T07:37:42;3.03;;;2.60;;
44664;SDS011;30382;48.802;9.388;2022-08-23T07:40:28;3.30;;;3.00;;
44664;SDS011;30382;48.802;9.388;2022-08-23T07:43:15;3.53;;;3.23;;
44664;SDS011;30382;48.802;9.388;2022-08-23T07:46:00;3.50;;;3.20;;
44664;SDS011;30382;48.802;9.388;2022-08-23T07:48:44;4.47;;;3.00;;
44664;SDS011;30382;48.802;9.388;2022-08-23T07:51:37;2.70;;;2.37;;
44664;SDS011;30382;48.802;9.388;2022-08-23T07:54:23;3.90;;;2.83;;
44664;SDS011;30382;48.802;9.388;2022-08-23T07:57:27;3.07;;;2.80;;
44664;SDS011;30382;48.802;9.388;2022-08-23T08:00:24;5.77;;;2.60;;
44664;SDS011;30382;48.802;9.388;2022-08-23T08:03:23;2.80;;;2.60;;
44664;SDS011;30382;48.802;9.388;2022-08-23T08:06:23;2.83;;;2.63;;
44664;SDS011;30382;48.802;9.388;2022-08-23T08:09:08;2.70;;;2.50;;
44664;SDS011;30382;48.802;9.388;2022-08-23T08:11:54;3.00;;;2.80;;
44664;SDS011;30382;48.802;9.388;2022-08-23T08:14:41;3.47;;;3.27;;
44664;SDS011;30382;48.802;9.388;2022-08-23T08:17:26;3.20;;;2.73;;
44664;SDS011;30382;48.802;9.388;2022-08-23T08:20:42;4.87;;;3.17;;
44664;SDS011;30382;48.802;9.388;2022-08-23T08:23:47;3.80;;;3.10;;
44664;SDS011;30382;48.802;9.388;2022-08-23T08:26:55;2.80;;;2.60;;
44664;SDS011;30382;48.802;9.388;2022-08-23T08:29:39;4.73;;;2.90;;
44664;SDS011;30382;48.802;9.388;2022-08-23T08:32:26;3.00;;;2.80;;
44664;SDS011;30382;48.802;9.388;2022-08-23T08:35:11;3.17;;;2.97;;
44664;SDS011;30382;48.802;9.388;2022-08-23T08:37:55;2.70;;;2.50;;
44664;SDS011;30382;48.802;9.388;2022-08-23T08:40:40;5.00;;;2.63;;
44664;SDS011;30382;48.802;9.388;2022-08-23T08:46:15;2.70;;;2.33;;
44664;SDS011;30382;48.802;9.388;2022-08-23T08:49:01;2.70;;;2.40;;
44664;SDS011;30382;48.802;9.388;2022-08-23T08:54:55;3.40;;;2.50;;
44664;SDS011;30382;48.802;9.388;2022-08-23T08:57:43;3.03;;;2.83;;
44664;SDS011;30382;48.802;9.388;2022-08-23T09:00:34;11.57;;;2.90;;
44664;SDS011;30382;48.802;9.388;2022-08-23T09:03:20;2.90;;;2.57;;
44664;SDS011;30382;48.802;9.388;2022-08-23T09:06:22;3.70;;;2.70;;
44664;SDS011;30382;48.802;9.388;2022-08-23T09:18:14;9.60;;;2.43;;
44664;SDS011;30382;48.802;9.388;2022-08-23T09:21:00;2.17;;;2.07;;
44664;SDS011;30382;48.802;9.388;2022-08-23T09:23:46;2.17;;;2.07;;
44664;SDS011;30382;48.802;9.388;2022-08-23T09:26:39;2.43;;;2.23;;
44664;SDS011;30382;48.802;9.388;2022-08-23T09:29:25;2.27;;;2.07;;
44664;SDS011;30382;48.802;9.388;2022-08-23T09:35:28;3.07;;;2.50;;
44664;SDS011;30382;48.802;9.388;2022-08-23T09:38:20;2.80;;;2.53;;
44664;SDS011;30382;48.802;9.388;2022-08-23T09:41:17;2.60;;;2.40;;
44664;SDS011;30382;48.802;9.388;2022-08-23T09:44:05;2.93;;;2.63;;
44664;SDS011;30382;48.802;9.388;2022-08-23T09:46:53;3.63;;;2.70;;
44664;SDS011;30382;48.802;9.388;2022-08-23T09:49:47;2.20;;;2.10;;
44664;SDS011;30382;48.802;9.388;2022-08-23T09:52:33;2.60;;;2.40;;
44664;SDS011;30382;48.802;9.388;2022-08-23T10:01:23;4.47;;;2.30;;
44664;SDS011;30382;48.802;9.388;2022-08-23T10:07:31;2.90;;;2.60;;
44664;SDS011;30382;48.802;9.388;2022-08-23T10:10:22;2.63;;;2.40;;
44664;SDS011;30382;48.802;9.388;2022-08-23T10:13:10;4.30;;;2.20;;
44664;SDS011;30382;48.802;9.388;2022-08-23T10:16:00;2.23;;;2.13;;
44664;SDS011;30382;48.802;9.388;2022-08-23T10:19:21;2.50;;;2.40;;
44664;SDS011;30382;48.802;9.388;2022-08-23T10:27:59;2.20;;;2.10;;
44664;SDS011;30382;48.802;9.388;2022-08-23T10:31:27;2.30;;;2.10;;
44664;SDS011;30382;48.802;9.388;2022-08-23T10:40:26;2.33;;;2.23;;
44664;SDS011;30382;48.802;9.388;2022-08-23T10:43:20;2.13;;;2.03;;
44664;SDS011;30382;48.802;9.388;2022-08-23T10:48:58;3.80;;;2.83;;
44664;SDS011;30382;48.802;9.388;2022-08-23T10:51:45;2.50;;;2.30;;
44664;SDS011;30382;48.802;9.388;2022-08-23T10:54:32;3.97;;;2.07;;
44664;SDS011;30382;48.802;9.388;2022-08-23T10:57:20;2.23;;;2.10;;
44664;SDS011;30382;48.802;9.388;2022-08-23T11:00:08;2.20;;;2.03;;
44664;SDS011;30382;48.802;9.388;2022-08-23T11:05:42;2.30;;;2.13;;
44664;SDS011;30382;48.802;9.388;2022-08-23T11:08:35;2.15;;;2.05;;
44664;SDS011;30382;48.802;9.388;2022-08-23T11:17:42;2.10;;;2.00;;
44664;SDS011;30382;48.802;9.388;2022-08-23T11:20:05;2.00;;;1.90;;
44664;SDS011;30382;48.802;9.388;2022-08-23T11:33:57;3.85;;;2.30;;
44664;SDS011;30382;48.802;9.388;2022-08-23T11:37:22;4.45;;;2.17;;
44664;SDS011;30382;48.802;9.388;2022-08-23T11:45:29;3.55;;;2.10;;
44664;SDS011;30382;48.802;9.388;2022-08-23T11:48:35;4.05;;;2.00;;
44664;SDS011;30382;48.802;9.388;2022-08-23T11:51:27;2.58;;;2.47;;
44664;SDS011;30382;48.802;9.388;2022-08-23T12:03:01;2.20;;;2.10;;
44664;SDS011;30382;48.802;9.388;2022-08-23T12:08:46;5.40;;;2.30;;
44664;SDS011;30382;48.802;9.388;2022-08-23T12:12:04;4.47;;;2.20;;
44664;SDS011;30382;48.802;9.388;2022-08-23T12:14:50;2.42;;;2.22;;
44664;SDS011;30382;48.802;9.388;2022-08-23T12:20:26;2.67;;;2.45;;
44664;SDS011;30382;48.802;9.388;2022-08-23T12:23:13;5.47;;;2.08;;
44664;SDS011;30382;48.802;9.388;2022-08-23T12:25:59;2.88;;;2.10;;
44664;SDS011;30382;48.802;9.388;2022-08-23T12:34:16;2.10;;;1.80;;
44664;SDS011;30382;48.802;9.388;2022-08-23T12:39:52;2.33;;;2.10;;
44664;SDS011;30382;48.802;9.388;2022-08-23T12:42:38;2.38;;;2.28;;
44664;SDS011;30382;48.802;9.388;2022-08-23T12:45:23;1.90;;;1.77;;
44664;SDS011;30382;48.802;9.388;2022-08-23T12:48:08;2.85;;;2.40;;
44664;SDS011;30382;48.802;9.388;2022-08-23T12:50:56;2.25;;;2.05;;
44664;SDS011;30382;48.802;9.388;2022-08-23T12:53:42;3.42;;;3.22;;
44664;SDS011;30382;48.802;9.388;2022-08-23T12:56:29;2.35;;;2.25;;
44664;SDS011;30382;48.802;9.388;2022-08-23T12:59:34;2.30;;;2.10;;
44664;SDS011;30382;48.802;9.388;2022-08-23T13:02:22;2.53;;;2.40;;
44664;SDS011;30382;48.802;9.388;2022-08-23T13:05:09;1.90;;;1.80;;
44664;SDS011;30382;48.802;9.388;2022-08-23T13:07:55;2.10;;;2.00;;
44664;SDS011;30382;48.802;9.388;2022-08-23T13:13:24;3.13;;;2.15;;
44664;SDS011;30382;48.802;9.388;2022-08-23T13:19:14;3.28;;;2.78;;
44664;SDS011;30382;48.802;9.388;2022-08-23T13:25:07;2.50;;;2.40;;
44664;SDS011;30382;48.802;9.388;2022-08-23T13:27:53;2.40;;;2.30;;
44664;SDS011;30382;48.802;9.388;2022-08-23T13:30:38;2.38;;;2.28;;
44664;SDS011;30382;48.802;9.388;2022-08-23T13:33:22;2.45;;;2.33;;
44664;SDS011;30382;48.802;9.388;2022-08-23T13:36:14;2.08;;;1.98;;
44664;SDS011;30382;48.802;9.388;2022-08-23T13:39:03;2.30;;;2.10;;
44664;SDS011;30382;48.802;9.388;2022-08-23T13:41:48;2.30;;;2.20;;
44664;SDS011;30382;48.802;9.388;2022-08-23T13:44:32;2.20;;;2.10;;
44664;SDS011;30382;48.802;9.388;2022-08-23T13:47:21;4.85;;;3.00;;
44664;SDS011;30382;48.802;9.388;2022-08-23T13:50:10;2.65;;;2.38;;
44664;SDS011;30382;48.802;9.388;2022-08-23T13:52:57;3.23;;;3.03;;
44664;SDS011;30382;48.802;9.388;2022-08-23T13:55:50;3.10;;;2.47;;
44664;SDS011;30382;48.802;9.388;2022-08-23T13:58:35;2.77;;;2.57;;
44664;SDS011;30382;48.802;9.388;2022-08-23T14:01:19;3.70;;;3.13;;
44664;SDS011;30382;48.802;9.388;2022-08-23T14:04:04;2.67;;;2.47;;
44664;SDS011;30382;48.802;9.388;2022-08-23T14:06:48;2.80;;;2.67;;
44664;SDS011;30382;48.802;9.388;2022-08-23T14:09:33;2.83;;;2.60;;
44664;SDS011;30382;48.802;9.388;2022-08-23T14:12:19;2.53;;;1.97;;
44664;SDS011;30382;48.802;9.388;2022-08-23T14:15:04;3.00;;;2.80;;
44664;SDS011;30382;48.802;9.388;2022-08-23T14:17:49;2.10;;;2.00;;
44664;SDS011;30382;48.802;9.388;2022-08-23T14:23:18;2.47;;;2.37;;
44664;SDS011;30382;48.802;9.388;2022-08-23T14:26:03;2.73;;;2.63;;
44664;SDS011;30382;48.802;9.388;2022-08-23T14:47:56;2.20;;;2.00;;
44664;SDS011;30382;48.802;9.388;2022-08-23T14:50:41;2.63;;;2.30;;
44664;SDS011;30382;48.802;9.388;2022-08-23T14:53:27;2.63;;;2.50;;
44664;SDS011;30382;48.802;9.388;2022-08-23T14:56:11;2.57;;;2.33;;
44664;SDS011;30382;48.802;9.388;2022-08-23T14:58:56;2.73;;;2.53;;
44664;SDS011;30382;48.802;9.388;2022-08-23T15:01:40;2.63;;;2.40;;
44664;SDS011;30382;48.802;9.388;2022-08-23T15:07:08;4.57;;;2.50;;
44664;SDS011;30382;48.802;9.388;2022-08-23T15:09:53;2.30;;;2.17;;
44664;SDS011;30382;48.802;9.388;2022-08-23T15:15:22;5.13;;;2.47;;
44664;SDS011;30382;48.802;9.388;2022-08-23T15:20:51;2.70;;;2.20;;
44664;SDS011;30382;48.802;9.388;2022-08-23T15:23:36;3.38;;;2.40;;
44664;SDS011;30382;48.802;9.388;2022-08-23T15:26:22;2.00;;;1.90;;
44664;SDS011;30382;48.802;9.388;2022-08-23T15:29:07;2.38;;;2.17;;
44664;SDS011;30382;48.802;9.388;2022-08-23T15:31:52;2.17;;;1.98;;
44664;SDS011;30382;48.802;9.388;2022-08-23T15:34:36;2.15;;;2.03;;
44664;SDS011;30382;48.802;9.388;2022-08-23T15:37:21;2.33;;;2.22;;
44664;SDS011;30382;48.802;9.388;2022-08-23T15:40:05;2.10;;;2.00;;
44664;SDS011;30382;48.802;9.388;2022-08-23T15:42:51;2.33;;;2.22;;
44664;SDS011;30382;48.802;9.388;2022-08-23T15:45:36;2.30;;;2.10;;
44664;SDS011;30382;48.802;9.388;2022-08-23T15:48:25;2.40;;;2.30;;
44664;SDS011;30382;48.802;9.388;2022-08-23T15:51:10;2.88;;;2.67;;
44664;SDS011;30382;48.802;9.388;2022-08-23T15:56:40;2.60;;;2.40;;
44664;SDS011;30382;48.802;9.388;2022-08-23T15:59:25;2.70;;;2.50;;
44664;SDS011;30382;48.802;9.388;2022-08-23T16:02:09;4.37;;;2.73;;
44664;SDS011;30382;48.802;9.388;2022-08-23T16:04:54;2.90;;;2.70;;
44664;SDS011;30382;48.802;9.388;2022-08-23T16:07:39;2.77;;;2.67;;
44664;SDS011;30382;48.802;9.388;2022-08-23T16:10:23;4.50;;;2.67;;
44664;SDS011;30382;48.802;9.388;2022-08-23T16:13:08;3.90;;;2.60;;
44664;SDS011;30382;48.802;9.388;2022-08-23T16:15:55;2.33;;;2.23;;
44664;SDS011;30382;48.802;9.388;2022-08-23T16:18:40;4.17;;;3.17;;
44664;SDS011;30382;48.802;9.388;2022-08-23T16:21:25;2.73;;;2.53;;
44664;SDS011;30382;48.802;9.388;2022-08-23T16:24:10;2.40;;;2.20;;
44664;SDS011;30382;48.802;9.388;2022-08-23T16:26:54;4.60;;;2.87;;
44664;SDS011;30382;48.802;9.388;2022-08-23T16:29:39;3.03;;;2.83;;
44664;SDS011;30382;48.802;9.388;2022-08-23T16:32:23;3.10;;;2.90;;
44664;SDS011;30382;48.802;9.388;2022-08-23T16:35:08;3.43;;;3.23;;
44664;SDS011;30382;48.802;9.388;2022-08-23T16:37:53;3.67;;;3.27;;
44664;SDS011;30382;48.802;9.388;2022-08-23T16:40:37;3.93;;;2.93;;
44664;SDS011;30382;48.802;9.388;2022-08-23T16:43:21;3.30;;;3.10;;
44664;SDS011;30382;48.802;9.388;2022-08-23T16:46:06;3.60;;;3.30;;
44664;SDS011;30382;48.802;9.388;2022-08-23T16:48:50;3.13;;;2.80;;
44664;SDS011;30382;48.802;9.388;2022-08-23T16:51:35;2.60;;;2.50;;
44664;SDS011;30382;48.802;9.388;2022-08-23T16:54:19;4.33;;;2.60;;
44664;SDS011;30382;48.802;9.388;2022-08-23T16:57:04;2.57;;;2.37;;
44664;SDS011;30382;48.802;9.388;2022-08-23T16:59:48;2.80;;;2.60;;
44664;SDS011;30382;48.802;9.388;2022-08-23T17:02:34;3.10;;;2.30;;
44664;SDS011;30382;48.802;9.388;2022-08-23T17:05:19;3.40;;;3.10;;
44664;SDS011;30382;48.802;9.388;2022-08-23T17:08:03;4.13;;;3.20;;
44664;SDS011;30382;48.802;9.388;2022-08-23T17:10:47;4.03;;;2.87;;
44664;SDS011;30382;48.802;9.388;2022-08-23T17:13:32;3.30;;;3.10;;
44664;SDS011;30382;48.802;9.388;2022-08-23T17:16:16;5.13;;;2.70;;
44664;SDS011;30382;48.802;9.388;2022-08-23T17:19:02;3.43;;;3.13;;
44664;SDS011;30382;48.802;9.388;2022-08-23T17:21:47;3.43;;;3.23;;
44664;SDS011;30382;48.802;9.388;2022-08-23T17:24:32;4.13;;;3.33;;
44664;SDS011;30382;48.802;9.388;2022-08-23T17:27:16;3.40;;;3.10;;
44664;SDS011;30382;48.802;9.388;2022-08-23T17:30:00;3.80;;;2.90;;
44664;SDS011;30382;48.802;9.388;2022-08-23T17:32:44;3.90;;;3.53;;
44664;SDS011;30382;48.802;9.388;2022-08-23T17:35:32;3.93;;;2.97;;
44664;SDS011;30382;48.802;9.388;2022-08-23T17:38:17;3.73;;;3.20;;
44664;SDS011;30382;48.802;9.388;2022-08-23T17:41:03;3.67;;;3.33;;
44664;SDS011;30382;48.802;9.388;2022-08-23T17:43:47;3.30;;;3.07;;
44664;SDS011;30382;48.802;9.388;2022-08-23T17:46:33;9.37;;;8.67;;
44664;SDS011;30382;48.802;9.388;2022-08-23T17:49:18;11.60;;;10.60;;
44664;SDS011;30382;48.802;9.388;2022-08-23T17:52:02;6.37;;;5.87;;
44664;SDS011;30382;48.802;9.388;2022-08-23T17:54:47;9.10;;;8.30;;
44664;SDS011;30382;48.802;9.388;2022-08-23T17:57:31;10.43;;;9.50;;
44664;SDS011;30382;48.802;9.388;2022-08-23T18:00:16;6.10;;;5.60;;
44664;SDS011;30382;48.802;9.388;2022-08-23T18:03:01;5.90;;;4.10;;
44664;SDS011;30382;48.802;9.388;2022-08-23T18:05:45;5.37;;;4.43;;
44664;SDS011;30382;48.802;9.388;2022-08-23T18:08:29;5.13;;;4.10;;
44664;SDS011;30382;48.802;9.388;2022-08-23T18:11:14;5.50;;;4.77;;
44664;SDS011;30382;48.802;9.388;2022-08-23T18:13:58;4.40;;;4.10;;
44664;SDS011;30382;48.802;9.388;2022-08-23T18:16:43;4.23;;;3.30;;
44664;SDS011;30382;48.802;9.388;2022-08-23T18:19:27;6.30;;;4.03;;
44664;SDS011;30382;48.802;9.388;2022-08-23T18:22:11;3.27;;;2.97;;
44664;SDS011;30382;48.802;9.388;2022-08-23T18:24:56;4.47;;;4.03;;
44664;SDS011;30382;48.802;9.388;2022-08-23T18:27:40;3.67;;;3.37;;
44664;SDS011;30382;48.802;9.388;2022-08-23T18:30:48;4.40;;;3.63;;
44664;SDS011;30382;48.802;9.388;2022-08-23T18:33:32;3.63;;;3.33;;
44664;SDS011;30382;48.802;9.388;2022-08-23T18:36:18;4.50;;;4.10;;
44664;SDS011;30382;48.802;9.388;2022-08-23T18:39:03;5.17;;;3.97;;
44664;SDS011;30382;48.802;9.388;2022-08-23T18:41:48;4.30;;;3.67;;
44664;SDS011;30382;48.802;9.388;2022-08-23T18:44:32;6.30;;;4.07;;
44664;SDS011;30382;48.802;9.388;2022-08-23T18:47:17;4.70;;;4.37;;
44664;SDS011;30382;48.802;9.388;2022-08-23T18:50:03;6.17;;;5.50;;
44664;SDS011;30382;48.802;9.388;2022-08-23T18:52:48;5.00;;;4.60;;
44664;SDS011;30382;48.802;9.388;2022-08-23T18:55:33;10.23;;;4.20;;
44664;SDS011;30382;48.802;9.388;2022-08-23T18:58:20;4.30;;;4.00;;
44664;SDS011;30382;48.802;9.388;2022-08-23T19:01:24;4.67;;;4.33;;
44664;SDS011;30382;48.802;9.388;2022-08-23T19:04:08;4.43;;;4.13;;
44664;SDS011;30382;48.802;9.388;2022-08-23T19:06:53;3.93;;;3.63;;